Time;durP1;ratioP1;P1;durP2;ratioP2;P2;SDS_P1;SDS_P2;PMS_P1;PMS_P2;Temp;Humidity;BMP_temperature;BMP_pressure;BME280_temperature;BME280_humidity;BME280_pressure;Samples;Min_cycle;Max_cycle;Signal;HPM_P1;HPM_P2
2023/01/09 00:01:11;;;;;;;1.47;0.43;;;;;;;6.91;81.01;98370.22;10544088;28;20194;-88
2023/01/09 00:06:14;;;;;;;0.87;0.40;;;;;;;7.10;80.37;98373.31;10521826;28;20245;-88
2023/01/09 00:11:16;;;;;;;0.30;0.30;;;;;;;7.10;81.23;98367.75;10537148;28;20206;-89
2023/01/09 00:16:18;;;;;;;0.30;0.30;;;;;;;6.68;81.68;98363.28;10532873;28;20199;-86
2023/01/09 00:21:21;;;;;;;1.53;0.20;;;;;;;6.91;80.21;98361.84;10529701;28;20206;-87
2023/01/09 00:26:25;;;;;;;0.20;0.20;;;;;;;6.61;80.33;98368.56;10533720;28;20279;-89
2023/01/09 00:31:27;;;;;;;0.70;0.13;;;;;;;6.96;78.25;98367.19;10518964;28;20220;-87
2023/01/09 00:36:29;;;;;;;0.20;0.10;;;;;;;6.72;80.72;98369.81;10555616;28;20291;-90
2023/01/09 00:41:39;;;;;;;0.27;0.10;;;;;;;6.59;80.15;98377.25;10536542;28;20195;-90
2023/01/09 00:46:45;;;;;;;0.10;0.10;;;;;;;6.42;80.89;98380.94;10551660;28;20218;-87
2023/01/09 00:51:47;;;;;;;1.20;0.10;;;;;;;6.62;79.81;98384.94;10556314;28;20198;-87
2023/01/09 00:56:51;;;;;;;0.23;0.10;;;;;;;6.50;80.80;98389.59;10541312;28;20212;-88
2023/01/09 01:01:53;;;;;;;0.73;0.20;;;;;;;6.71;80.25;98387.66;10531696;28;20203;-89
2023/01/09 01:12:16;;;;;;;0.13;0.10;;;;;;;6.58;82.07;98391.50;10536416;28;20582;-88
2023/01/09 01:17:19;;;;;;;0.30;0.17;;;;;;;7.17;80.90;98386.72;10511944;28;20544;-88
2023/01/09 01:22:21;;;;;;;0.50;0.10;;;;;;;6.42;82.09;98399.66;10529175;28;20199;-88
2023/01/09 01:27:23;;;;;;;0.10;0.10;;;;;;;6.72;81.57;98390.13;10545137;28;20240;-87
2023/01/09 01:32:25;;;;;;;0.53;0.10;;;;;;;6.62;80.98;98390.53;10521197;28;20253;-88
2023/01/09 01:37:28;;;;;;;0.10;0.10;;;;;;;6.56;81.64;98397.41;10505049;28;20297;-88
2023/01/09 01:42:30;;;;;;;0.10;0.07;;;;;;;7.13;79.14;98388.56;10532626;28;20211;-87
2023/01/09 01:47:53;;;;;;;0.10;0.10;;;;;;;6.38;82.15;98399.50;10528573;28;20203;-88
2023/01/09 01:53:04;;;;;;;0.50;0.10;;;;;;;6.61;80.76;98410.34;10497515;28;20265;-88
2023/01/09 01:58:09;;;;;;;1.40;0.10;;;;;;;6.38;81.28;98413.41;10524500;28;20644;-89
2023/01/09 02:03:14;;;;;;;0.20;0.10;;;;;;;6.84;78.86;98410.88;10533871;28;20557;-89
2023/01/09 02:08:18;;;;;;;0.20;0.10;;;;;;;6.51;79.23;98419.09;10503257;28;20553;-87
2023/01/09 02:13:20;;;;;;;0.10;0.10;;;;;;;6.54;76.70;98416.47;10531554;28;20211;-88
2023/01/09 02:18:28;;;;;;;0.10;0.10;;;;;;;6.65;76.84;98430.81;10519842;28;20186;-87
2023/01/09 02:23:55;;;;;;;0.83;0.20;;;;;;;6.29;78.88;98434.94;10507360;28;20198;-87
2023/01/09 02:29:16;;;;;;;0.77;0.20;;;;;;;6.88;76.57;98437.75;10525748;28;20267;-88
2023/01/09 02:34:37;;;;;;;1.00;0.20;;;;;;;6.68;77.24;98444.09;10511779;28;20230;-87
2023/01/09 02:39:48;;;;;;;1.93;0.00;;;;;;;6.60;77.46;98444.94;10525093;28;20206;-88
2023/01/09 02:44:50;;;;;;;0.47;0.10;;;;;;;6.67;76.46;98445.25;10516570;28;20487;-87
2023/01/09 02:49:55;;;;;;;1.00;0.10;;;;;;;6.75;76.29;98436.00;10519470;28;21397;-88
2023/01/09 02:55:08;;;;;;;0.10;0.10;;;;;;;6.81;76.22;98445.84;10532288;28;20199;-87
2023/01/09 03:00:13;;;;;;;1.93;0.20;;;;;;;6.50;77.62;98443.34;10519604;28;20195;-87
2023/01/09 03:05:23;;;;;;;0.33;0.10;;;;;;;6.78;76.05;98436.19;10539669;28;20194;-86
2023/01/09 03:10:43;;;;;;;1.13;0.30;;;;;;;6.55;77.30;98432.03;10506493;28;20215;-88
2023/01/09 03:15:48;;;;;;;2.20;0.40;;;;;;;5.84;79.20;98440.13;10518306;28;20203;-86
2023/01/09 03:20:51;;;;;;;1.07;0.40;;;;;;;6.36;76.74;98448.31;10487380;28;20245;-87
2023/01/09 03:25:54;;;;;;;1.77;0.30;;;;;;;6.44;76.38;98456.63;10497225;28;20223;-87
2023/01/09 03:30:56;;;;;;;1.30;0.40;;;;;;;6.43;77.51;98471.69;10500636;28;20713;-87
2023/01/09 03:35:58;;;;;;;0.30;0.30;;;;;;;6.48;77.27;98481.03;10532468;28;20229;-86
2023/01/09 03:41:01;;;;;;;1.43;0.43;;;;;;;6.27;77.71;98492.09;10524660;28;20199;-87
2023/01/09 03:46:03;;;;;;;2.30;0.50;;;;;;;6.40;77.95;98503.03;10528808;28;20256;-88
2023/01/09 03:51:05;;;;;;;1.57;0.60;;;;;;;6.17;78.14;98515.50;10523048;28;20561;-87
2023/01/09 03:56:07;;;;;;;2.47;1.10;;;;;;;6.34;79.14;98514.66;10529110;28;20195;-87
2023/01/09 04:01:12;;;;;;;2.03;0.73;;;;;;;6.34;78.17;98525.78;10497520;28;20199;-86
2023/01/09 04:06:15;;;;;;;1.97;0.87;;;;;;;6.48;76.76;98520.84;10510019;28;20263;-87
2023/01/09 04:11:17;;;;;;;1.83;0.80;;;;;;;6.56;76.07;98514.41;10517118;28;20288;-87
2023/01/09 04:16:19;;;;;;;2.83;0.70;;;;;;;6.53;75.70;98525.41;10538430;28;20240;-87
2023/01/09 04:21:21;;;;;;;0.83;0.70;;;;;;;6.73;74.99;98522.72;10532904;28;20260;-87
2023/01/09 04:26:23;;;;;;;1.93;0.60;;;;;;;6.43;75.24;98530.19;10507007;28;20498;-87
2023/01/09 04:31:26;;;;;;;3.37;0.70;;;;;;;6.16;75.41;98540.91;10517732;28;20203;-87
2023/01/09 04:36:28;;;;;;;0.80;0.43;;;;;;;6.18;75.06;98539.41;10530408;28;20223;-86
2023/01/09 04:41:48;;;;;;;2.40;0.70;;;;;;;6.75;72.78;98541.88;10549436;28;20581;-87
2023/01/09 04:46:51;;;;;;;4.00;0.80;;;;;;;6.34;73.60;98542.50;10519498;28;20545;-86
2023/01/09 04:51:54;;;;;;;1.90;0.80;;;;;;;6.63;72.50;98545.38;10522535;28;20269;-86
2023/01/09 04:56:56;;;;;;;3.30;0.73;;;;;;;6.40;73.60;98547.56;10532077;28;20190;-86
2023/01/09 05:01:58;;;;;;;1.80;0.60;;;;;;;6.29;72.43;98543.50;10532423;28;20199;-85
2023/01/09 05:07:02;;;;;;;5.10;0.70;;;;;;;6.13;72.88;98558.28;10534294;28;20203;-83
2023/01/09 05:12:05;;;;;;;3.17;0.77;;;;;;;6.25;72.70;98573.16;10503032;28;20502;-88
2023/01/09 05:17:07;;;;;;;8.90;2.13;;;;;;;5.80;73.17;98577.41;10510034;28;20190;-84
2023/01/09 05:22:11;;;;;;;2.80;0.97;;;;;;;5.88;73.44;98583.00;10510464;28;20267;-87
2023/01/09 05:27:13;;;;;;;2.80;0.97;;;;;;;6.04;72.32;98588.88;10519845;28;20203;-82
2023/01/09 05:32:15;;;;;;;4.17;1.37;;;;;;;5.97;72.93;98591.34;10530368;28;20253;-87
2023/01/09 05:37:17;;;;;;;2.73;0.90;;;;;;;5.61;75.39;98586.09;10511158;28;20528;-85
2023/01/09 05:42:20;;;;;;;6.50;1.23;;;;;;;6.18;72.76;98594.28;10522351;28;20194;-84
2023/01/09 05:47:22;;;;;;;6.53;1.37;;;;;;;6.23;73.03;98582.97;10505296;28;20214;-87
2023/01/09 05:52:24;;;;;;;3.60;0.90;;;;;;;6.41;71.80;98582.63;10508838;28;20202;-87
2023/01/09 05:57:27;;;;;;;5.63;0.80;;;;;;;5.90;73.50;98588.25;10509963;28;20217;-84
2023/01/09 06:02:29;;;;;;;6.27;1.00;;;;;;;6.20;72.01;98592.78;10537439;28;20186;-87
2023/01/09 06:07:35;;;;;;;4.80;0.60;;;;;;;5.79;73.21;98592.47;10524342;28;20644;-87
2023/01/09 06:12:37;;;;;;;5.50;0.73;;;;;;;6.39;70.55;98587.72;10531374;28;20191;-82
2023/01/09 06:17:40;;;;;;;1.33;0.50;;;;;;;6.01;71.89;98600.69;10530336;28;20195;-83
2023/01/09 06:22:44;;;;;;;2.53;0.73;;;;;;;5.70;72.94;98595.25;10523275;28;20225;-82
2023/01/09 06:27:46;;;;;;;4.50;0.40;;;;;;;6.03;71.60;98604.78;10509956;28;20214;-82
2023/01/09 06:32:48;;;;;;;3.80;0.43;;;;;;;5.95;70.75;98602.81;10532109;28;20194;-84
2023/01/09 06:37:50;;;;;;;1.40;0.47;;;;;;;5.92;71.62;98597.88;10516502;28;20531;-84
2023/01/09 06:42:52;;;;;;;5.07;0.57;;;;;;;5.77;72.87;98605.91;10521768;28;20259;-88
2023/01/09 06:47:54;;;;;;;3.90;0.40;;;;;;;5.75;73.75;98603.47;10523834;28;20237;-87
2023/01/09 06:52:56;;;;;;;2.70;0.50;;;;;;;5.84;72.93;98606.22;10529678;28;20253;-83
2023/01/09 06:57:59;;;;;;;3.70;0.40;;;;;;;5.62;74.84;98613.59;10522381;28;20647;-89
2023/01/09 07:03:01;;;;;;;4.30;0.50;;;;;;;5.77;75.37;98612.31;10534630;28;20203;-87
2023/01/09 07:08:03;;;;;;;4.20;0.50;;;;;;;5.58;76.27;98607.03;10545247;28;20291;-87
2023/01/09 07:13:05;;;;;;;3.00;0.47;;;;;;;5.58;77.05;98611.75;10533773;28;20190;-87
2023/01/09 07:18:07;;;;;;;2.40;0.30;;;;;;;5.41;77.47;98609.75;10535655;28;20190;-82
2023/01/09 07:23:13;;;;;;;1.93;0.40;;;;;;;6.06;75.29;98611.63;10526323;28;20486;-82
2023/01/09 07:28:15;;;;;;;5.03;0.70;;;;;;;5.75;76.28;98617.38;10526936;28;20211;-83
2023/01/09 07:33:17;;;;;;;3.43;0.50;;;;;;;5.73;75.50;98617.69;10513500;28;20190;-82
2023/01/09 07:38:19;;;;;;;3.07;0.60;;;;;;;5.45;74.98;98616.31;10535910;28;20222;-84
2023/01/09 07:43:21;;;;;;;2.93;1.03;;;;;;;5.93;74.67;98615.41;10529194;28;20648;-88
2023/01/09 07:48:23;;;;;;;1.90;0.37;;;;;;;5.74;74.70;98619.31;10548059;28;20210;-87
2023/01/09 07:53:25;;;;;;;1.43;0.20;;;;;;;5.60;74.92;98618.66;10519162;28;20194;-82
2023/01/09 07:58:27;;;;;;;3.73;0.67;;;;;;;5.59;75.33;98617.00;10525127;28;20234;-86
2023/01/09 08:03:32;;;;;;;2.70;0.40;;;;;;;5.95;75.35;98627.84;10532582;28;20672;-84
2023/01/09 08:08:34;;;;;;;2.53;0.60;;;;;;;5.79;75.67;98632.25;10531594;28;20268;-87
2023/01/09 08:13:36;;;;;;;2.40;0.37;;;;;;;5.83;75.32;98632.41;10527561;28;20282;-88
2023/01/09 08:18:38;;;;;;;3.60;0.50;;;;;;;5.79;74.83;98636.97;10527889;28;20187;-88
2023/01/09 08:23:41;;;;;;;3.03;0.30;;;;;;;5.63;75.03;98634.69;10545839;28;20191;-86
2023/01/09 08:28:43;;;;;;;3.67;0.50;;;;;;;6.13;73.08;98641.78;10537754;28;20215;-86
2023/01/09 08:33:45;;;;;;;2.67;0.40;;;;;;;5.87;74.55;98622.28;10522509;28;20252;-84
2023/01/09 08:38:47;;;;;;;1.70;0.40;;;;;;;5.86;74.24;98632.59;10543361;28;20234;-86
2023/01/09 08:49:10;;;;;;;1.07;0.40;;;;;;;5.50;77.71;98646.78;10521381;28;20214;-83
2023/01/09 08:54:12;;;;;;;2.50;0.30;;;;;;;5.70;78.58;98640.59;10513002;28;20664;-88
2023/01/09 08:59:14;;;;;;;5.50;0.57;;;;;;;6.05;77.92;98646.19;10554370;28;20225;-82
2023/01/09 09:04:16;;;;;;;1.67;0.30;;;;;;;6.12;77.81;98645.69;10533727;28;20252;-86
2023/01/09 09:09:19;;;;;;;3.23;0.43;;;;;;;5.97;77.54;98656.16;10539063;28;20244;-85
2023/01/09 09:19:41;;;;;;;3.97;0.50;;;;;;;6.13;76.58;98653.72;10521580;28;20627;-88
2023/01/09 09:24:44;;;;;;;3.23;0.43;;;;;;;6.34;76.15;98654.69;10525325;28;20202;-82
2023/01/09 09:29:46;;;;;;;2.33;0.30;;;;;;;6.45;76.00;98655.19;10539623;28;20242;-87
2023/01/09 09:34:48;;;;;;;2.00;0.37;;;;;;;6.79;74.72;98665.50;10532762;28;20238;-85
2023/01/09 09:39:50;;;;;;;2.37;0.70;;;;;;;6.65;76.34;98673.19;10531696;28;20188;-83
2023/01/09 09:45:09;;;;;;;5.90;1.07;;;;;;;6.56;77.60;98689.06;10522360;28;20583;-82
2023/01/09 09:50:14;;;;;;;2.20;0.47;;;;;;;6.31;78.41;98699.91;10526119;28;20210;-83
2023/01/09 09:55:28;;;;;;;2.20;0.63;;;;;;;6.25;78.80;98690.09;10532152;28;20253;-84
2023/01/09 10:00:30;;;;;;;3.50;0.73;;;;;;;6.44;78.67;98710.06;10522675;28;20252;-83
2023/01/09 10:05:35;;;;;;;2.50;0.63;;;;;;;6.55;78.66;98720.91;10537229;28;20186;-85
2023/01/09 10:10:40;;;;;;;2.17;0.60;;;;;;;6.55;79.30;98718.09;10515672;28;20227;-84
2023/01/09 10:15:47;;;;;;;3.37;0.83;;;;;;;7.00;78.28;98713.81;10507336;28;20208;-87
2023/01/09 10:20:56;;;;;;;2.90;1.13;;;;;;;6.87;78.04;98706.44;10514612;28;20198;-88
2023/01/09 10:26:07;;;;;;;5.83;1.40;;;;;;;7.03;77.18;98704.78;10504199;28;20264;-88
2023/01/09 10:31:27;;;;;;;2.33;1.13;;;;;;;6.22;80.48;98718.56;10503473;28;20240;-83
2023/01/09 10:36:41;;;;;;;5.77;1.20;;;;;;;6.90;78.48;98713.34;10526391;28;20284;-88
2023/01/09 10:41:54;;;;;;;3.27;1.27;;;;;;;6.87;78.20;98709.25;10504616;28;20190;-82
2023/01/09 10:46:58;;;;;;;3.47;1.20;;;;;;;7.13;76.89;98721.16;10531049;28;20206;-83
2023/01/09 10:52:19;;;;;;;2.90;1.10;;;;;;;6.72;77.97;98721.69;10505551;28;20227;-83
2023/01/09 10:57:43;;;;;;;5.60;1.40;;;;;;;6.87;75.92;98731.53;10512943;28;20217;-89
2023/01/09 11:02:46;;;;;;;4.57;1.10;;;;;;;7.59;74.87;98721.50;10525289;28;20244;-83
2023/01/09 11:07:52;;;;;;;2.13;0.80;;;;;;;7.30;74.15;98719.47;10523604;28;20228;-89
2023/01/09 11:13:13;;;;;;;3.70;1.10;;;;;;;7.00;74.99;98722.16;10515635;28;20569;-84
2023/01/09 11:18:19;;;;;;;3.77;0.90;;;;;;;7.06;73.82;98726.44;10533413;28;20191;-88
2023/01/09 11:23:29;;;;;;;3.70;0.73;;;;;;;7.02;73.01;98721.84;10527199;28;20187;-82
2023/01/09 11:28:31;;;;;;;4.27;0.50;;;;;;;7.12;72.88;98719.50;10534403;28;20246;-83
2023/01/09 11:33:36;;;;;;;2.37;0.80;;;;;;;6.75;72.60;98732.22;10513890;28;20199;-85
2023/01/09 11:38:51;;;;;;;2.27;0.53;;;;;;;7.60;70.78;98740.66;10498207;28;20252;-84
2023/01/09 11:43:56;;;;;;;1.60;0.50;;;;;;;7.21;71.97;98743.75;10530632;28;20322;-88
2023/01/09 11:49:00;;;;;;;0.70;0.40;;;;;;;7.44;70.76;98740.44;10540317;28;20275;-84
2023/01/09 11:54:33;;;;;;;1.73;0.40;;;;;;;7.31;69.70;98754.59;10543071;28;20194;-85
2023/01/09 11:59:35;;;;;;;2.83;0.50;;;;;;;7.27;69.63;98748.03;10506111;28;20195;-88
2023/01/09 12:05:25;;;;;;;1.53;0.40;;;;;;;7.33;69.35;98741.94;10541295;28;20213;-87
2023/01/09 12:10:59;;;;;;;2.53;0.40;;;;;;;7.65;67.29;98742.47;10531021;28;20254;-83
2023/01/09 12:16:16;;;;;;;3.97;0.70;;;;;;;7.18;69.09;98761.19;10543610;28;20247;-87
2023/01/09 12:21:38;;;;;;;2.83;0.60;;;;;;;7.12;72.37;98780.84;10517971;28;20252;-85
2023/01/09 12:26:52;;;;;;;2.83;0.70;;;;;;;7.49;70.99;98778.47;10534202;28;20190;-88
2023/01/09 12:32:17;;;;;;;5.20;1.07;;;;;;;6.97;74.23;98803.66;10540070;28;20222;-87
2023/01/09 12:37:47;;;;;;;3.33;0.60;;;;;;;6.73;77.91;98801.34;10534262;28;20661;-83
2023/01/09 12:42:52;;;;;;;3.97;0.90;;;;;;;7.04;76.33;98800.41;10543102;28;20606;-89
2023/01/09 12:48:03;;;;;;;4.27;1.17;;;;;;;7.11;76.85;98807.09;10541914;28;20220;-84
2023/01/09 12:53:21;;;;;;;2.40;0.60;;;;;;;7.05;76.92;98822.38;10502699;28;20271;-85
2023/01/09 12:58:40;;;;;;;2.53;0.87;;;;;;;6.52;79.36;98835.75;10540641;28;20194;-86
2023/01/09 13:03:51;;;;;;;6.17;1.00;;;;;;;6.88;78.56;98830.72;10522706;28;20259;-83
2023/01/09 13:09:13;;;;;;;4.03;1.00;;;;;;;6.57;79.42;98841.16;10538105;28;20565;-83
2023/01/09 13:14:36;;;;;;;4.17;1.10;;;;;;;6.92;78.40;98842.03;10532783;28;20256;-85
2023/01/09 13:19:41;;;;;;;7.37;1.23;;;;;;;6.65;78.37;98849.53;10517744;28;20190;-87
2023/01/09 13:24:55;;;;;;;4.57;0.90;;;;;;;6.86;76.74;98855.31;10528958;28;20225;-84
2023/01/09 13:30:08;;;;;;;2.37;0.90;;;;;;;6.75;77.65;98873.47;10530614;28;20246;-85
2023/01/09 13:35:14;;;;;;;2.47;0.83;;;;;;;6.92;76.17;98884.69;10533142;28;20307;-82
2023/01/09 13:40:19;;;;;;;0.93;0.70;;;;;;;6.99;75.60;98893.38;10519748;28;20248;-82
2023/01/09 13:45:27;;;;;;;1.90;0.83;;;;;;;7.03;75.35;98890.75;10532409;28;20190;-83
2023/01/09 13:50:29;;;;;;;4.07;0.90;;;;;;;6.88;74.20;98913.53;10531951;28;20646;-84
2023/01/09 13:55:34;;;;;;;3.53;0.90;;;;;;;6.83;73.18;98911.69;10530994;28;20195;-84
2023/01/09 14:00:36;;;;;;;2.20;0.60;;;;;;;6.66;73.68;98918.03;10509382;28;20190;-83
2023/01/09 14:05:39;;;;;;;2.40;0.70;;;;;;;6.74;73.69;98931.16;10525882;28;20586;-83
2023/01/09 14:10:49;;;;;;;3.63;1.20;;;;;;;6.49;74.49;98945.03;10525963;28;20718;-84
2023/01/09 14:16:00;;;;;;;4.63;1.17;;;;;;;6.88;73.19;98950.56;10510237;28;20248;-83
2023/01/09 14:21:09;;;;;;;3.87;1.07;;;;;;;6.94;73.16;98957.66;10514431;28;20199;-82
2023/01/09 14:26:19;;;;;;;4.03;1.27;;;;;;;6.76;73.50;98967.09;10529276;28;20190;-86
2023/01/09 14:31:30;;;;;;;5.23;0.97;;;;;;;6.61;74.18;98984.22;10508200;28;20295;-83
2023/01/09 14:36:33;;;;;;;4.50;1.50;;;;;;;7.02;72.22;98993.06;10530429;28;20226;-85
2023/01/09 14:41:56;;;;;;;3.03;1.30;;;;;;;7.08;71.65;98990.94;10512226;28;20186;-83
2023/01/09 14:47:32;;;;;;;4.47;0.93;;;;;;;6.47;74.31;99014.97;10505530;28;20602;-83
2023/01/09 14:52:38;;;;;;;1.03;0.67;;;;;;;6.69;73.82;99016.84;10497334;28;20574;-83
2023/01/09 14:57:40;;;;;;;2.53;1.33;;;;;;;6.77;73.71;99032.84;10538386;28;20199;-84
2023/01/09 15:02:43;;;;;;;3.77;0.87;;;;;;;6.57;74.66;99050.06;10519020;28;20252;-87
2023/01/09 15:07:51;;;;;;;4.83;1.17;;;;;;;6.68;75.09;99057.88;10539171;28;20217;-88
2023/01/09 15:12:55;;;;;;;2.93;1.33;;;;;;;6.83;74.90;99062.19;10538867;28;20209;-84
2023/01/09 15:17:59;;;;;;;2.00;1.20;;;;;;;6.93;75.88;99078.66;10527810;28;20534;-73
2023/01/09 15:23:04;;;;;;;3.10;1.60;;;;;;;6.77;74.90;99088.56;10528768;28;20554;-83
2023/01/09 15:28:25;;;;;;;4.00;1.00;;;;;;;6.72;73.95;99102.59;10536783;28;20374;-87
2023/01/09 15:33:27;;;;;;;5.40;1.10;;;;;;;6.58;74.66;99104.66;10515974;28;20222;-84
2023/01/09 15:38:31;;;;;;;4.93;1.30;;;;;;;6.66;74.80;99113.09;10525245;28;20279;-86
2023/01/09 15:43:38;;;;;;;2.97;0.97;;;;;;;6.85;73.00;99112.03;10525383;28;20219;-81
2023/01/09 15:48:41;;;;;;;3.60;1.53;;;;;;;7.00;72.30;99115.25;10521919;28;20238;-85
2023/01/09 15:53:45;;;;;;;4.27;1.43;;;;;;;6.98;72.05;99142.63;10516257;28;20246;-80
2023/01/09 15:58:50;;;;;;;4.73;1.80;;;;;;;6.52;73.33;99151.34;10522503;28;20591;-82
2023/01/09 16:03:57;;;;;;;3.07;1.20;;;;;;;6.97;72.31;99157.69;10489132;28;20222;-87
2023/01/09 16:09:02;;;;;;;4.10;1.67;;;;;;;6.71;74.16;99167.84;10515636;28;20198;-83
2023/01/09 16:14:12;;;;;;;4.00;2.17;;;;;;;6.64;74.90;99175.84;10523040;28;20219;-84
2023/01/09 16:19:31;;;;;;;3.33;2.00;;;;;;;6.48;76.80;99185.72;10527955;28;20203;-81
2023/01/09 16:24:42;;;;;;;6.20;2.60;;;;;;;6.17;76.33;99189.22;10535597;28;20229;-85
2023/01/09 16:29:49;;;;;;;8.40;2.23;;;;;;;6.03;77.45;99205.16;10507729;28;20300;-83
2023/01/09 16:34:55;;;;;;;2.30;1.97;;;;;;;6.55;76.13;99205.63;10503803;28;20288;-81
2023/01/09 16:40:22;;;;;;;4.67;2.50;;;;;;;6.67;75.04;99220.63;10499201;28;20241;-83
2023/01/09 16:45:35;;;;;;;2.30;1.73;;;;;;;6.14;77.15;99240.00;10526948;28;20342;-85
2023/01/09 16:50:37;;;;;;;2.60;2.00;;;;;;;6.32;76.38;99247.34;10519910;28;20643;-83
2023/01/09 16:55:40;;;;;;;4.57;2.63;;;;;;;5.51;79.31;99263.03;10524119;28;20198;-87
2023/01/09 17:00:42;;;;;;;4.70;2.50;;;;;;;6.13;77.49;99268.97;10519575;28;20195;-81
2023/01/09 17:05:47;;;;;;;3.37;2.83;;;;;;;6.23;76.56;99260.38;10519931;28;20269;-85
2023/01/09 17:10:52;;;;;;;4.77;2.37;;;;;;;5.80;77.86;99273.81;10513024;28;20812;-85
2023/01/09 17:15:55;;;;;;;5.40;2.93;;;;;;;5.69;78.50;99273.22;10508083;28;20245;-83
2023/01/09 17:20:58;;;;;;;5.80;3.10;;;;;;;6.01;77.67;99275.06;10510894;28;20195;-82
2023/01/09 17:31:25;;;;;;;6.50;3.80;;;;;;;5.68;81.05;99302.16;10534355;28;20210;-83
2023/01/09 17:36:30;;;;;;;7.53;4.10;;;;;;;5.94;79.75;99308.03;10513480;28;20234;-86
2023/01/09 17:41:33;;;;;;;10.03;4.83;;;;;;;6.09;79.28;99309.69;10523398;28;20510;-87
2023/01/09 17:46:38;;;;;;;7.23;4.80;;;;;;;5.84;80.89;99335.25;10526528;28;20194;-87
2023/01/09 17:51:40;;;;;;;6.90;5.03;;;;;;;6.24;79.14;99344.75;10511475;28;20287;-87
2023/01/09 17:56:45;;;;;;;7.37;5.13;;;;;;;6.55;78.96;99364.41;10523244;28;20500;-89
2023/01/09 18:01:48;;;;;;;7.50;4.73;;;;;;;6.22;79.43;99374.84;10528606;28;20372;-82
2023/01/09 18:06:52;;;;;;;9.50;5.20;;;;;;;6.52;78.48;99378.97;10524755;28;20218;-88
2023/01/09 18:11:54;;;;;;;8.60;4.93;;;;;;;6.33;78.36;99388.25;10516189;28;20222;-83
2023/01/09 18:16:56;;;;;;;7.57;4.17;;;;;;;6.46;78.31;99403.31;10523428;28;20198;-87
2023/01/09 18:21:59;;;;;;;7.37;4.27;;;;;;;6.48;77.15;99411.34;10526000;28;20194;-82
2023/01/09 18:27:02;;;;;;;9.03;3.70;;;;;;;6.21;77.54;99434.47;10521323;28;20793;-84
2023/01/09 18:32:04;;;;;;;5.47;3.27;;;;;;;6.88;74.97;99432.78;10532269;28;20238;-86
2023/01/09 18:37:06;;;;;;;4.07;2.83;;;;;;;6.72;74.33;99431.44;10514883;28;20262;-88
2023/01/09 18:42:09;;;;;;;3.80;2.97;;;;;;;6.35;75.79;99430.53;10534656;28;20191;-88
2023/01/09 18:47:12;;;;;;;3.87;2.70;;;;;;;6.37;74.88;99452.53;10535888;28;20218;-85
2023/01/09 18:52:15;;;;;;;3.73;2.30;;;;;;;6.27;75.03;99445.19;10518723;28;20218;-88
2023/01/09 18:57:17;;;;;;;6.07;2.20;;;;;;;6.21;75.81;99471.47;10527747;28;20259;-86
2023/01/09 19:02:22;;;;;;;3.27;2.37;;;;;;;6.51;74.03;99474.81;10512420;28;20222;-87
2023/01/09 19:07:25;;;;;;;2.50;2.20;;;;;;;6.02;74.76;99488.28;10514630;28;20491;-89
2023/01/09 19:12:27;;;;;;;4.13;2.43;;;;;;;6.25;74.21;99496.75;10537758;28;20238;-85
2023/01/09 19:17:30;;;;;;;3.57;3.00;;;;;;;5.90;74.42;99495.47;10531577;28;20202;-89
2023/01/09 19:22:32;;;;;;;4.43;2.60;;;;;;;5.94;74.14;99490.91;10499472;28;20194;-86
2023/01/09 19:27:34;;;;;;;3.20;2.00;;;;;;;6.04;73.96;99510.22;10506401;28;20272;-85
2023/01/09 19:32:38;;;;;;;3.50;2.70;;;;;;;6.15;74.49;99520.06;10522800;28;20238;-80
2023/01/09 19:37:40;;;;;;;5.20;3.53;;;;;;;6.38;74.17;99530.22;10511447;28;20230;-84
2023/01/09 19:42:43;;;;;;;7.43;4.60;;;;;;;6.52;73.70;99540.53;10532485;28;20203;-85
2023/01/09 19:47:46;;;;;;;8.30;4.43;;;;;;;6.20;75.79;99546.97;10532308;28;20187;-81
2023/01/09 19:52:49;;;;;;;6.67;5.50;;;;;;;6.40;75.89;99549.41;10513729;28;20248;-82
2023/01/09 19:57:51;;;;;;;10.60;5.77;;;;;;;6.44;75.61;99548.47;10519657;28;20225;-82
2023/01/09 20:02:54;;;;;;;8.37;5.90;;;;;;;6.20;76.77;99561.72;10511208;28;20218;-85
2023/01/09 20:07:56;;;;;;;7.47;5.93;;;;;;;6.41;76.27;99568.59;10530308;28;20303;-84
2023/01/09 20:12:59;;;;;;;9.17;5.77;;;;;;;6.30;76.18;99583.81;10516955;28;20662;-85
2023/01/09 20:18:03;;;;;;;10.30;6.50;;;;;;;6.54;75.70;99597.63;10530582;28;20202;-82
2023/01/09 20:23:05;;;;;;;10.87;6.43;;;;;;;6.35;77.09;99603.22;10536113;28;20256;-87
2023/01/09 20:28:07;;;;;;;10.83;6.70;;;;;;;6.53;76.20;99614.63;10500478;28;20585;-84
2023/01/09 20:33:10;;;;;;;14.20;6.50;;;;;;;6.11;78.07;99633.16;10513984;28;20210;-90
2023/01/09 20:38:13;;;;;;;8.63;6.57;;;;;;;6.21;76.88;99635.78;10531995;28;20718;-86
2023/01/09 20:43:17;;;;;;;12.03;6.80;;;;;;;6.52;75.62;99636.09;10543570;28;20210;-82
2023/01/09 20:48:20;;;;;;;12.80;7.87;;;;;;;6.32;75.77;99659.53;10520606;28;20506;-86
2023/01/09 20:53:23;;;;;;;11.60;8.13;;;;;;;6.80;74.50;99662.09;10522477;28;20234;-90
2023/01/09 20:58:25;;;;;;;10.77;7.37;;;;;;;6.14;76.69;99685.47;10532290;28;20248;-88
2023/01/09 21:03:29;;;;;;;10.60;7.20;;;;;;;6.22;77.69;99687.56;10536157;28;20195;-84
2023/01/09 21:08:33;;;;;;;9.13;7.50;;;;;;;6.31;76.88;99696.03;10542473;28;20198;-82
2023/01/09 21:13:35;;;;;;;9.57;7.07;;;;;;;5.99;77.93;99716.31;10523135;28;20218;-87
2023/01/09 21:18:38;;;;;;;12.60;7.30;;;;;;;6.51;77.21;99711.63;10540331;28;20256;-88
2023/01/09 21:23:46;;;;;;;10.90;6.60;;;;;;;6.10;78.47;99735.34;10542736;28;20183;-83
2023/01/09 21:28:49;;;;;;;10.07;6.80;;;;;;;6.20;78.59;99731.56;10537222;28;20202;-85
2023/01/09 21:33:53;;;;;;;14.20;6.73;;;;;;;6.39;78.39;99749.13;10539472;28;20239;-83
2023/01/09 21:38:58;;;;;;;13.07;7.20;;;;;;;6.25;78.16;99758.53;10542240;28;20687;-83
2023/01/09 21:49:24;;;;;;;10.87;6.57;;;;;;;6.14;80.32;99773.75;10544013;28;20579;-84
2023/01/09 21:54:26;;;;;;;13.37;7.50;;;;;;;6.18;78.64;99789.53;10540392;28;20244;-87
2023/01/09 21:59:28;;;;;;;12.63;6.83;;;;;;;6.48;77.34;99798.56;10540493;28;20243;-89
2023/01/09 22:04:32;;;;;;;11.10;6.73;;;;;;;6.23;79.20;99811.75;10525025;28;20203;-87
2023/01/09 22:09:35;;;;;;;12.57;6.87;;;;;;;6.02;79.20;99811.19;10540162;28;20194;-85
2023/01/09 22:14:37;;;;;;;13.80;5.67;;;;;;;6.00;77.76;99823.75;10542737;28;20271;-89
2023/01/09 22:19:41;;;;;;;9.80;5.50;;;;;;;6.52;76.30;99836.69;10538525;28;20247;-87
2023/01/09 22:24:46;;;;;;;12.00;5.27;;;;;;;6.23;77.48;99850.72;10507040;28;20195;-84
2023/01/09 22:29:48;;;;;;;10.30;7.07;;;;;;;6.17;78.91;99854.69;10521579;28;20225;-88
2023/01/09 22:34:50;;;;;;;13.03;7.37;;;;;;;6.37;78.11;99865.59;10541883;28;20291;-84
2023/01/09 22:39:52;;;;;;;11.03;7.53;;;;;;;6.39;77.37;99893.97;10541392;28;20202;-86
2023/01/09 22:44:54;;;;;;;13.73;8.40;;;;;;;6.67;76.60;99891.38;10522706;28;20729;-84
2023/01/09 22:49:57;;;;;;;11.80;8.27;;;;;;;6.80;75.25;99899.03;10520138;28;20206;-83
2023/01/09 22:54:59;;;;;;;15.00;7.60;;;;;;;6.49;75.51;99920.03;10524237;28;20611;-86
2023/01/09 23:00:01;;;;;;;11.40;6.70;;;;;;;6.50;75.68;99918.91;10524254;28;20606;-88
2023/01/09 23:05:03;;;;;;;13.63;7.27;;;;;;;6.66;74.97;99920.38;10540430;28;20533;-84
2023/01/09 23:10:06;;;;;;;13.47;6.70;;;;;;;6.55;74.86;99932.78;10537240;28;20220;-85
2023/01/09 23:15:08;;;;;;;14.97;6.97;;;;;;;6.52;75.81;99950.09;10533330;28;20211;-84
2023/01/09 23:20:11;;;;;;;12.03;6.10;;;;;;;6.32;75.05;99970.66;10536600;28;20195;-83
2023/01/09 23:25:14;;;;;;;11.33;5.67;;;;;;;6.11;76.32;99975.63;10531646;28;20472;-85
2023/01/09 23:30:16;;;;;;;11.23;5.50;;;;;;;6.00;77.67;99990.78;10530720;28;20614;-88
2023/01/09 23:35:19;;;;;;;12.67;5.17;;;;;;;6.02;77.10;99994.13;10529419;28;20226;-87
2023/01/09 23:40:21;;;;;;;14.13;5.13;;;;;;;6.16;76.71;100011.78;10530375;28;20594;-86
2023/01/09 23:45:23;;;;;;;10.43;5.13;;;;;;;5.92;76.10;100022.84;10546120;28;20194;-84
2023/01/09 23:50:25;;;;;;;11.17;5.03;;;;;;;6.32;74.30;100038.34;10528484;28;20191;-89
2023/01/09 23:55:28;;;;;;;10.30;5.47;;;;;;;6.02;76.83;100050.63;10545772;28;20263;-84
